createdAt,value
2017-06-29T00:00:04.239Z,52.91
2017-06-29T00:01:04.265Z,52.62
2017-06-29T00:02:04.596Z,52.62
2017-06-29T00:03:04.625Z,52.62
2017-06-29T00:04:04.658Z,52.42
2017-06-29T00:05:04.694Z,52.72
2017-06-29T00:06:04.728Z,52.72
2017-06-29T00:07:04.753Z,52.81
2017-06-29T00:08:04.470Z,52.91
2017-06-29T00:09:04.502Z,52.33
2017-06-29T00:10:04.838Z,52.42
2017-06-29T00:11:04.867Z,52.72
2017-06-29T00:12:04.893Z,52.62
2017-06-29T00:13:04.611Z,52.33
2017-06-29T00:14:04.646Z,52.62
2017-06-29T00:15:04.992Z,52.72
2017-06-29T00:16:04.704Z,52.42
2017-06-29T00:17:05.045Z,53.1
2017-06-29T00:18:05.075Z,53.1
2017-06-29T00:19:05.098Z,52.42
2017-06-29T00:20:05.127Z,52.33
2017-06-29T00:21:05.161Z,52.81
2017-06-29T00:22:05.189Z,52.62
2017-06-29T00:23:05.213Z,52.81
2017-06-29T00:24:05.246Z,52.81
2017-06-29T00:25:04.964Z,52.91
2017-06-29T00:26:04.995Z,52.33
2017-06-29T00:27:05.036Z,53.2
2017-06-29T00:28:05.057Z,53
2017-06-29T00:29:05.078Z,52.52
2017-06-29T00:30:05.116Z,53.1
2017-06-29T00:31:05.452Z,53.1
2017-06-29T00:32:05.492Z,53.3
2017-06-29T00:33:05.504Z,52.91
2017-06-29T00:34:05.539Z,53.1
2017-06-29T00:35:05.259Z,53.3
2017-06-29T00:36:05.288Z,52.81
2017-06-29T00:37:05.628Z,52.91
2017-06-29T00:38:05.666Z,52.91
2017-06-29T00:39:05.691Z,52.91
2017-06-29T00:40:05.715Z,52.91
2017-06-29T00:41:05.748Z,52.91
2017-06-29T00:42:05.460Z,53
2017-06-29T00:43:05.798Z,52.91
2017-06-29T00:44:05.830Z,52.91
2017-06-29T00:45:05.855Z,53
2017-06-29T00:46:05.897Z,53.1
2017-06-29T00:47:05.605Z,53.3
2017-06-29T00:48:05.638Z,53.39
2017-06-29T00:49:05.670Z,52.91
2017-06-29T00:50:06.015Z,52.91
2017-06-29T00:51:06.036Z,52.91
2017-06-29T00:52:06.071Z,53
2017-06-29T00:53:06.098Z,52.91
2017-06-29T00:54:06.122Z,52.91
2017-06-29T00:55:06.155Z,52.81
2017-06-29T00:56:06.184Z,53
2017-06-29T00:57:06.218Z,53
2017-06-29T00:58:06.250Z,53.3
2017-06-29T00:59:05.967Z,52.91
2017-06-29T01:00:06.300Z,53
2017-06-29T01:01:06.332Z,53
2017-06-29T01:02:06.361Z,53.1
2017-06-29T01:03:06.378Z,53.1
2017-06-29T01:04:06.423Z,53.2
2017-06-29T01:05:06.140Z,52.91
2017-06-29T01:06:06.476Z,53
2017-06-29T01:07:06.193Z,53
2017-06-29T01:08:06.830Z,52.81
2017-06-29T01:09:06.259Z,53
2017-06-29T01:10:06.284Z,53.1
2017-06-29T01:11:06.316Z,53
2017-06-29T01:12:06.652Z,52.81
2017-06-29T01:13:06.622Z,52.81
2017-06-29T01:14:06.402Z,53
2017-06-29T01:15:06.748Z,52.81
2017-06-29T01:16:06.772Z,53
2017-06-29T01:17:06.795Z,52.91
2017-06-29T01:18:07.079Z,52.81
2017-06-29T01:19:06.547Z,52.81
2017-06-29T01:20:06.575Z,52.81
2017-06-29T01:21:06.909Z,52.91
2017-06-29T01:22:06.942Z,53
2017-06-29T01:23:07.279Z,53
2017-06-29T01:24:07.006Z,52.91
2017-06-29T01:25:07.035Z,52.81
2017-06-29T01:26:07.064Z,52.91
2017-06-29T01:27:07.093Z,52.91
2017-06-29T01:28:07.057Z,53.39
2017-06-29T01:29:07.155Z,53.3
2017-06-29T01:30:07.179Z,53.2
2017-06-29T01:31:07.218Z,53.1
2017-06-29T01:32:07.233Z,53.1
2017-06-29T01:33:07.568Z,53.1
2017-06-29T01:34:06.986Z,53.3
2017-06-29T01:35:07.322Z,52.81
2017-06-29T01:36:07.357Z,53.2
2017-06-29T01:37:07.381Z,53
2017-06-29T01:38:07.351Z,52.91
2017-06-29T01:39:07.445Z,53
2017-06-29T01:40:07.472Z,52.91
2017-06-29T01:41:07.506Z,52.81
2017-06-29T01:42:07.538Z,53.3
2017-06-29T01:43:07.554Z,52.91
2017-06-29T01:44:07.591Z,52.91
2017-06-29T01:45:07.612Z,52.81
2017-06-29T01:46:07.645Z,52.81
2017-06-29T01:47:07.673Z,53
2017-06-29T01:48:07.959Z,53
2017-06-29T01:49:07.739Z,53
2017-06-29T01:50:07.768Z,52.91
2017-06-29T01:51:07.789Z,52.81
2017-06-29T01:52:07.517Z,53.3
2017-06-29T01:53:08.150Z,53.2
2017-06-29T01:54:07.883Z,53.1
2017-06-29T01:55:07.593Z,53.1
2017-06-29T01:56:07.632Z,53
2017-06-29T01:57:07.661Z,53.2
2017-06-29T01:58:08.298Z,52.91
2017-06-29T01:59:07.720Z,52.81
2017-06-29T02:00:08.068Z,53
2017-06-29T02:01:07.770Z,52.81
2017-06-29T02:02:08.109Z,52.91
2017-06-29T02:03:08.390Z,52.91
2017-06-29T02:04:08.184Z,52.81
2017-06-29T02:05:08.204Z,53
2017-06-29T02:06:08.242Z,53.1
2017-06-29T02:07:08.258Z,53.2
2017-06-29T02:08:08.578Z,53.3
2017-06-29T02:09:08.012Z,53.1
2017-06-29T02:10:08.341Z,53.1
2017-06-29T02:11:08.377Z,53.2
2017-06-29T02:12:08.397Z,52.91
2017-06-29T02:13:08.435Z,53
2017-06-29T02:14:08.470Z,53
2017-06-29T02:15:08.493Z,52.78
2017-06-29T02:16:08.213Z,53.3
2017-06-29T02:17:08.553Z,53.3
2017-06-29T02:18:08.582Z,53
2017-06-29T02:19:08.606Z,53.1
2017-06-29T02:20:08.648Z,53.1
2017-06-29T02:21:08.357Z,53.08
2017-06-29T02:22:08.698Z,53.08
2017-06-29T02:23:08.723Z,53.27
2017-06-29T02:24:08.756Z,53.08
2017-06-29T02:25:08.477Z,52.91
2017-06-29T02:26:08.811Z,53.27
2017-06-29T02:27:08.842Z,53
2017-06-29T02:28:08.876Z,53.3
2017-06-29T02:29:08.908Z,52.98
2017-06-29T02:30:08.930Z,53.2
2017-06-29T02:31:08.957Z,52.78
2017-06-29T02:32:08.994Z,52.98
2017-06-29T02:33:09.031Z,53.1
2017-06-29T02:34:08.737Z,53
2017-06-29T02:35:09.080Z,52.81
2017-06-29T02:36:09.104Z,53
2017-06-29T02:37:08.826Z,52.91
2017-06-29T02:38:09.171Z,52.98
2017-06-29T02:39:09.200Z,52.88
2017-06-29T02:40:09.228Z,52.88
2017-06-29T02:41:09.285Z,52.98
2017-06-29T02:42:08.965Z,53
2017-06-29T02:43:09.315Z,52.78
2017-06-29T02:44:09.347Z,52.98
2017-06-29T02:45:09.368Z,52.81
2017-06-29T02:46:09.094Z,52.81
2017-06-29T02:47:09.430Z,52.91
2017-06-29T02:48:09.151Z,52.98
2017-06-29T02:49:09.489Z,52.98
2017-06-29T02:50:09.517Z,52.98
2017-06-29T02:51:09.546Z,52.78
2017-06-29T02:52:09.262Z,52.78
2017-06-29T02:53:09.603Z,53
2017-06-29T02:54:09.637Z,52.78
2017-06-29T02:55:09.666Z,52.88
2017-06-29T02:56:09.692Z,52.88
2017-06-29T02:57:09.718Z,52.78
2017-06-29T02:58:09.752Z,53.08
2017-06-29T02:59:09.781Z,52.78
2017-06-29T03:00:09.496Z,53.08
2017-06-29T03:01:09.836Z,53.27
2017-06-29T03:02:09.871Z,52.78
2017-06-29T03:03:09.895Z,53.47
2017-06-29T03:04:09.920Z,53.27
2017-06-29T03:05:09.642Z,52.98
2017-06-29T03:06:09.989Z,53.08
2017-06-29T03:07:09.703Z,52.98
2017-06-29T03:08:09.730Z,52.59
2017-06-29T03:09:10.369Z,52.5
2017-06-29T03:10:10.105Z,52.69
2017-06-29T03:11:10.122Z,52.3
2017-06-29T03:12:10.156Z,52.5
2017-06-29T03:13:10.189Z,52.69
2017-06-29T03:14:10.465Z,52.69
2017-06-29T03:15:10.245Z,52.5
2017-06-29T03:16:10.278Z,52.5
2017-06-29T03:17:10.311Z,52.59
2017-06-29T03:18:10.321Z,52.69
2017-06-29T03:19:10.664Z,51.91
2017-06-29T03:20:10.392Z,52.01
2017-06-29T03:21:10.419Z,52.5
2017-06-29T03:22:10.455Z,52.2
2017-06-29T03:23:10.484Z,52.11
2017-06-29T03:24:10.449Z,52.01
2017-06-29T03:25:10.225Z,52.01
2017-06-29T03:26:10.565Z,52.01
2017-06-29T03:27:10.599Z,52.01
2017-06-29T03:28:10.632Z,52.3
2017-06-29T03:29:10.957Z,51.91
2017-06-29T03:30:10.685Z,51.91
2017-06-29T03:31:10.705Z,52.11
2017-06-29T03:32:10.732Z,52.01
2017-06-29T03:33:10.451Z,51.91
2017-06-29T03:34:11.100Z,52.01
2017-06-29T03:35:10.514Z,52.11
2017-06-29T03:36:10.862Z,52.01
2017-06-29T03:37:10.884Z,52.2
2017-06-29T03:38:10.913Z,52.2
2017-06-29T03:39:11.195Z,52.11
2017-06-29T03:40:10.667Z,52.11
2017-06-29T03:41:11.026Z,51.91
2017-06-29T03:42:11.047Z,52.11
2017-06-29T03:43:11.065Z,51.91
2017-06-29T03:44:11.337Z,52.01
2017-06-29T03:45:11.134Z,52.11
2017-06-29T03:46:11.146Z,52.2
2017-06-29T03:47:11.180Z,51.91
2017-06-29T03:48:11.215Z,52.11
2017-06-29T03:49:11.492Z,52.11
2017-06-29T03:50:11.261Z,51.91
2017-06-29T03:51:11.282Z,51.91
2017-06-29T03:52:11.030Z,52.11
2017-06-29T03:53:11.044Z,51.81
2017-06-29T03:54:11.635Z,51.81
2017-06-29T03:55:11.097Z,51.91
2017-06-29T03:56:11.131Z,51.91
2017-06-29T03:57:11.468Z,51.81
2017-06-29T03:58:11.202Z,51.91
2017-06-29T03:59:11.824Z,51.81
2017-06-29T04:00:11.545Z,52.01
2017-06-29T04:01:11.586Z,51.81
2017-06-29T04:02:11.621Z,52.2
2017-06-29T04:03:11.644Z,51.81
2017-06-29T04:04:11.925Z,52.01
2017-06-29T04:05:11.693Z,52.01
2017-06-29T04:06:11.725Z,52.11
2017-06-29T04:07:11.752Z,52.01
2017-06-29T04:08:11.788Z,51.72
2017-06-29T04:09:12.113Z,52.3
2017-06-29T04:10:11.851Z,52.4
2017-06-29T04:11:11.879Z,52.01
2017-06-29T04:12:11.908Z,52.4
2017-06-29T04:13:11.624Z,51.53
2017-06-29T04:14:11.900Z,52.2
2017-06-29T04:15:11.682Z,52.2
2017-06-29T04:16:12.027Z,52.3
2017-06-29T04:17:12.064Z,52.4
2017-06-29T04:18:12.084Z,52.3
2017-06-29T04:19:12.409Z,52.3
2017-06-29T04:20:12.142Z,52.4
2017-06-29T04:21:12.164Z,52.11
2017-06-29T04:22:12.197Z,52.11
2017-06-29T04:23:12.225Z,51.72
2017-06-29T04:24:12.505Z,51.91
2017-06-29T04:25:12.282Z,51.81
2017-06-29T04:26:12.316Z,51.72
2017-06-29T04:27:12.343Z,51.62
2017-06-29T04:28:12.373Z,52.11
2017-06-29T04:29:12.406Z,51.72
2017-06-29T04:30:12.442Z,51.62
2017-06-29T04:31:12.459Z,51.72
2017-06-29T04:32:12.522Z,51.62
2017-06-29T04:33:12.516Z,51.62
2017-06-29T04:34:12.237Z,51.43
2017-06-29T04:35:12.571Z,51.53
2017-06-29T04:36:12.615Z,51.43
2017-06-29T04:37:12.324Z,51.33
2017-06-29T04:38:12.349Z,51.91
2017-06-29T04:39:12.378Z,51.43
2017-06-29T04:40:12.401Z,51.53
2017-06-29T04:41:12.432Z,51.43
2017-06-29T04:42:12.467Z,51.62
2017-06-29T04:43:12.808Z,51.62
2017-06-29T04:44:12.526Z,51.33
2017-06-29T04:45:12.866Z,51.43
2017-06-29T04:46:12.898Z,51.53
2017-06-29T04:47:12.920Z,51.43
2017-06-29T04:48:12.948Z,51.72
2017-06-29T04:49:12.978Z,51.53
2017-06-29T04:50:13.006Z,51.43
2017-06-29T04:51:13.040Z,51.62
2017-06-29T04:52:13.064Z,51.43
2017-06-29T04:53:13.097Z,51.53
2017-06-29T04:54:12.811Z,51.43
2017-06-29T04:55:13.154Z,51.43
2017-06-29T04:56:13.184Z,51.62
2017-06-29T04:57:13.211Z,51.43
2017-06-29T04:58:13.240Z,51.62
2017-06-29T04:59:12.953Z,51.43
2017-06-29T05:00:13.295Z,51.62
2017-06-29T05:01:13.326Z,51.62
2017-06-29T05:02:13.043Z,51.62
2017-06-29T05:03:13.383Z,51.62
2017-06-29T05:04:13.416Z,51.81
2017-06-29T05:05:13.442Z,51.04
2017-06-29T05:06:13.471Z,51.23
2017-06-29T05:07:13.187Z,51.14
2017-06-29T05:08:13.529Z,51.23
2017-06-29T05:09:13.559Z,51.04
2017-06-29T05:10:13.637Z,51.04
2017-06-29T05:11:13.626Z,51.14
2017-06-29T05:12:13.332Z,51.33
2017-06-29T05:13:13.669Z,51.14
2017-06-29T05:14:13.703Z,51.53
2017-06-29T05:15:13.735Z,51.14
2017-06-29T05:16:13.811Z,51.33
2017-06-29T05:17:13.787Z,51.43
2017-06-29T05:18:13.509Z,51.23
2017-06-29T05:19:13.538Z,50.84
2017-06-29T05:20:13.578Z,51.14
2017-06-29T05:21:13.912Z,51.43
2017-06-29T05:22:13.946Z,51.04
2017-06-29T05:23:13.969Z,51.23
2017-06-29T05:24:14.006Z,51.33
2017-06-29T05:25:14.029Z,51.43
2017-06-29T05:26:13.744Z,51.04
2017-06-29T05:27:14.084Z,51.14
2017-06-29T05:28:14.118Z,51.04
2017-06-29T05:29:14.143Z,51.23
2017-06-29T05:30:13.862Z,51.43
2017-06-29T05:31:13.892Z,51.33
2017-06-29T05:32:14.233Z,51.43
2017-06-29T05:33:13.936Z,51.43
2017-06-29T05:34:14.299Z,51.23
2017-06-29T05:35:14.321Z,51.04
2017-06-29T05:36:14.343Z,50.74
2017-06-29T05:37:14.376Z,51.11
2017-06-29T05:38:14.405Z,51.23
2017-06-29T05:39:14.435Z,51.21
2017-06-29T05:40:14.764Z,50.84
2017-06-29T05:41:14.176Z,51.14
2017-06-29T05:42:14.213Z,51.33
2017-06-29T05:43:14.547Z,50.84
2017-06-29T05:44:14.583Z,51.43
2017-06-29T05:45:14.854Z,51.23
2017-06-29T05:46:14.632Z,51.21
2017-06-29T05:47:14.661Z,51.23
2017-06-29T05:48:14.685Z,51.43
2017-06-29T05:49:14.416Z,51.53
2017-06-29T05:50:15.067Z,51.53
2017-06-29T05:51:14.783Z,51.5
2017-06-29T05:52:14.812Z,51.23
2017-06-29T05:53:14.840Z,51.01
2017-06-29T05:54:14.867Z,51.23
2017-06-29T05:55:15.194Z,51.23
2017-06-29T05:56:14.923Z,51.33
2017-06-29T05:57:14.953Z,51.31
2017-06-29T05:58:14.988Z,51.23
2017-06-29T05:59:15.014Z,51.04
2017-06-29T06:00:15.284Z,51.23
2017-06-29T06:01:15.072Z,51.23
2017-06-29T06:02:15.092Z,51.33
2017-06-29T06:03:15.138Z,51.43
2017-06-29T06:04:14.847Z,51.43
2017-06-29T06:05:15.188Z,51.43
2017-06-29T06:06:14.908Z,51.53
2017-06-29T06:07:15.241Z,51.31
2017-06-29T06:08:14.958Z,51.23
2017-06-29T06:09:14.982Z,51.43
2017-06-29T06:10:15.587Z,51.31
2017-06-29T06:11:15.359Z,51.43
2017-06-29T06:12:15.393Z,51.33
2017-06-29T06:13:15.414Z,51.31
2017-06-29T06:14:15.449Z,51.43
2017-06-29T06:15:15.474Z,51.4
2017-06-29T06:16:15.180Z,51.43
2017-06-29T06:17:15.555Z,51.31
2017-06-29T06:18:15.570Z,51.33
2017-06-29T06:19:15.595Z,51.43
2017-06-29T06:20:15.610Z,51.4
2017-06-29T06:21:15.640Z,51.33
2017-06-29T06:22:15.685Z,51.4
2017-06-29T06:23:15.710Z,51.21
2017-06-29T06:24:15.437Z,51.23
2017-06-29T06:25:15.771Z,51.43
2017-06-29T06:26:15.797Z,51.23
2017-06-29T06:27:15.531Z,51.21
2017-06-29T06:28:15.854Z,51.01
2017-06-29T06:29:15.884Z,51.43
2017-06-29T06:30:15.908Z,51.4
2017-06-29T06:31:15.928Z,51.21
2017-06-29T06:32:15.969Z,51.33
2017-06-29T06:33:15.998Z,51.01
2017-06-29T06:34:16.023Z,51.01
2017-06-29T06:35:16.052Z,51.11
2017-06-29T06:36:16.091Z,51.21
2017-06-29T06:37:15.806Z,51.21
2017-06-29T06:38:16.146Z,51.79
2017-06-29T06:39:16.175Z,51.69
2017-06-29T06:40:16.203Z,51.59
2017-06-29T06:41:16.224Z,51.4
2017-06-29T06:42:16.250Z,51.4
2017-06-29T06:43:16.286Z,51.4
2017-06-29T06:44:16.317Z,51.5
2017-06-29T06:45:16.351Z,51.59
2017-06-29T06:46:16.376Z,51.31
2017-06-29T06:47:16.400Z,51.4
2017-06-29T06:48:16.118Z,51.4
2017-06-29T06:49:16.459Z,51.59
2017-06-29T06:50:16.496Z,51.4
2017-06-29T06:51:16.517Z,51.59
2017-06-29T06:52:16.549Z,51.4
2017-06-29T06:53:16.613Z,51.69
2017-06-29T06:54:16.615Z,51.11
2017-06-29T06:55:16.639Z,51.5
2017-06-29T06:56:16.660Z,51.21
2017-06-29T06:57:16.680Z,51.14
2017-06-29T06:58:16.721Z,51.23
2017-06-29T06:59:16.756Z,51.11
2017-06-29T07:00:16.787Z,51.43
2017-06-29T07:01:16.837Z,51.23
2017-06-29T07:02:16.833Z,51.04
2017-06-29T07:03:16.858Z,51.11
2017-06-29T07:04:16.894Z,51.31
2017-06-29T07:05:16.923Z,51.33
2017-06-29T07:06:16.957Z,51.33
2017-06-29T07:07:16.977Z,51.23
2017-06-29T07:08:17.021Z,51.23
2017-06-29T07:09:16.730Z,51.33
2017-06-29T07:10:17.072Z,51.62
2017-06-29T07:11:17.106Z,50.84
2017-06-29T07:12:17.125Z,50.84
2017-06-29T07:13:17.162Z,50.84
2017-06-29T07:14:17.191Z,51.23
2017-06-29T07:15:17.215Z,51.33
2017-06-29T07:16:17.244Z,50.84
2017-06-29T07:17:17.278Z,51.23
2017-06-29T07:18:16.989Z,51.33
2017-06-29T07:19:17.338Z,51.35
2017-06-29T07:20:17.052Z,51.53
2017-06-29T07:21:17.397Z,51.33
2017-06-29T07:22:17.109Z,50.96
2017-06-29T07:23:17.450Z,51.33
2017-06-29T07:24:17.480Z,51.45
2017-06-29T07:25:17.534Z,51.06
2017-06-29T07:26:17.544Z,50.74
2017-06-29T07:27:17.567Z,50.74
2017-06-29T07:28:17.282Z,50.87
2017-06-29T07:29:17.624Z,50.48
2017-06-29T07:30:17.647Z,50.48
2017-06-29T07:31:17.369Z,50.58
2017-06-29T07:32:17.704Z,50.68
2017-06-29T07:33:17.732Z,50.77
2017-06-29T07:34:17.454Z,50.68
2017-06-29T07:35:17.796Z,50.77
2017-06-29T07:36:17.512Z,49.9
2017-06-29T07:37:17.861Z,50.29
2017-06-29T07:38:17.890Z,50.38
2017-06-29T07:39:17.914Z,50.09
2017-06-29T07:40:17.640Z,50.29
2017-06-29T07:41:17.969Z,50.38
2017-06-29T07:42:18.009Z,50.58
2017-06-29T07:43:17.726Z,50.48
2017-06-29T07:44:17.742Z,49.99
2017-06-29T07:45:18.092Z,50.29
2017-06-29T07:46:18.120Z,50.38
2017-06-29T07:47:18.149Z,49.99
2017-06-29T07:48:18.183Z,50.19
2017-06-29T07:49:18.216Z,49.9
2017-06-29T07:50:18.223Z,49.99
2017-06-29T07:51:18.512Z,49.8
2017-06-29T07:52:18.302Z,49.99
2017-06-29T07:53:18.021Z,50.29
2017-06-29T07:54:18.350Z,50.38
2017-06-29T07:55:18.371Z,50.29
2017-06-29T07:56:18.353Z,50.29
2017-06-29T07:57:18.442Z,50.29
2017-06-29T07:58:18.154Z,49.8
2017-06-29T07:59:18.491Z,49.9
2017-06-29T08:00:18.532Z,49.99
2017-06-29T08:01:18.812Z,49.99
2017-06-29T08:02:18.590Z,49.9
2017-06-29T08:03:18.614Z,49.9
2017-06-29T08:04:18.643Z,49.41
2017-06-29T08:05:18.680Z,49.34
2017-06-29T08:06:18.645Z,49.63
2017-06-29T08:07:18.421Z,49.8
2017-06-29T08:08:18.766Z,49.51
2017-06-29T08:09:18.794Z,49.71
2017-06-29T08:10:18.829Z,49.61
2017-06-29T08:11:19.149Z,49.63
2017-06-29T08:12:18.878Z,49.51
2017-06-29T08:13:18.590Z,49.51
2017-06-29T08:14:18.982Z,49.34
2017-06-29T08:15:18.959Z,49.32
2017-06-29T08:16:19.257Z,49.54
2017-06-29T08:17:19.029Z,49.61
2017-06-29T08:18:18.738Z,49.82
2017-06-29T08:19:19.091Z,49.54
2017-06-29T08:20:18.856Z,49.61
2017-06-29T08:21:19.076Z,49.24
2017-06-29T08:22:19.178Z,49.34
2017-06-29T08:23:19.211Z,48.95
2017-06-29T08:24:19.232Z,49.24
2017-06-29T08:25:19.264Z,48.85
2017-06-29T08:26:19.547Z,48.95
2017-06-29T08:27:19.318Z,48.85
2017-06-29T08:28:19.350Z,48.95
2017-06-29T08:29:19.067Z,49.24
2017-06-29T08:30:19.096Z,49.05
2017-06-29T08:31:19.444Z,49.05
2017-06-29T08:32:19.462Z,49.05
2017-06-29T08:33:19.494Z,49.05
2017-06-29T08:34:19.528Z,48.95
2017-06-29T08:35:19.557Z,49.05
2017-06-29T08:36:19.586Z,48.95
2017-06-29T08:37:19.622Z,48.83
2017-06-29T08:38:19.647Z,49.02
2017-06-29T08:39:19.663Z,49.02
2017-06-29T08:40:19.699Z,49.02
2017-06-29T08:41:19.729Z,49.22
2017-06-29T08:42:19.471Z,48.95
2017-06-29T08:43:19.799Z,48.08
2017-06-29T08:44:19.825Z,48.47
2017-06-29T08:45:19.853Z,48.95
2017-06-29T08:46:19.885Z,48.75
2017-06-29T08:47:19.910Z,48.95
2017-06-29T08:48:19.938Z,47.88
2017-06-29T08:49:19.975Z,48.18
2017-06-29T08:50:19.992Z,48.57
2017-06-29T08:51:20.037Z,48.37
2017-06-29T08:52:19.746Z,48.66
2017-06-29T08:53:20.083Z,48.37
2017-06-29T08:54:20.103Z,48.57
2017-06-29T08:55:19.840Z,48.18
2017-06-29T08:56:19.866Z,48.25
2017-06-29T08:57:20.206Z,48.08
2017-06-29T08:58:20.234Z,48.66
2017-06-29T08:59:20.259Z,48.08
2017-06-29T09:00:19.980Z,48.08
2017-06-29T09:01:20.312Z,48.47
2017-06-29T09:02:20.350Z,48.93
2017-06-29T09:03:20.382Z,48.57
2017-06-29T09:04:20.416Z,48.95
2017-06-29T09:05:20.442Z,48.08
2017-06-29T09:06:20.469Z,48.27
2017-06-29T09:07:20.502Z,48.18
2017-06-29T09:08:20.526Z,48.66
2017-06-29T09:09:20.555Z,48.18
2017-06-29T09:10:20.593Z,48.27
2017-06-29T09:11:20.309Z,48.47
2017-06-29T09:12:20.897Z,48.57
2017-06-29T09:13:20.680Z,48.47
2017-06-29T09:14:20.712Z,48.18
2017-06-29T09:15:20.738Z,48.08
2017-06-29T09:16:20.765Z,48.08
2017-06-29T09:17:21.051Z,47.98
2017-06-29T09:18:20.827Z,48.08
2017-06-29T09:19:20.856Z,48.37
2017-06-29T09:20:20.573Z,48.08
2017-06-29T09:21:20.905Z,48.08
2017-06-29T09:22:20.878Z,48.18
2017-06-29T09:23:20.666Z,48.47
2017-06-29T09:24:21.000Z,48.27
2017-06-29T09:25:20.720Z,48.47
2017-06-29T09:26:21.063Z,48.37
2017-06-29T09:27:21.334Z,47.98
2017-06-29T09:28:20.801Z,48.27
2017-06-29T09:29:21.153Z,48.37
2017-06-29T09:30:20.869Z,48.27
2017-06-29T09:31:21.209Z,48.57
2017-06-29T09:32:21.536Z,48.47
2017-06-29T09:33:21.263Z,48.37
2017-06-29T09:34:20.984Z,48.66
2017-06-29T09:35:21.319Z,48.27
2017-06-29T09:36:21.350Z,48.18
2017-06-29T09:37:21.379Z,48.66
2017-06-29T09:38:21.411Z,48.27
2017-06-29T09:39:21.132Z,48.66
2017-06-29T09:40:21.476Z,47.78
2017-06-29T09:41:21.485Z,47.88
2017-06-29T09:42:21.538Z,48.66
2017-06-29T09:43:21.563Z,48.66
2017-06-29T09:44:21.589Z,48.37
2017-06-29T09:45:21.617Z,48.57
2017-06-29T09:46:21.650Z,48.37
2017-06-29T09:47:21.371Z,48.37
2017-06-29T09:48:21.703Z,48.18
2017-06-29T09:49:21.421Z,48.27
2017-06-29T09:50:21.757Z,48.47
2017-06-29T09:51:21.793Z,48.18
2017-06-29T09:52:21.827Z,48.85
2017-06-29T09:53:21.863Z,48.85
2017-06-29T09:54:21.885Z,48.75
2017-06-29T09:55:21.601Z,48.93
2017-06-29T09:56:21.951Z,48.85
2017-06-29T09:57:21.978Z,48.95
2017-06-29T09:58:21.997Z,49.05
2017-06-29T09:59:22.040Z,49.02
2017-06-29T10:00:22.069Z,48.95
2017-06-29T10:01:22.094Z,49.02
2017-06-29T10:02:22.122Z,49.63
2017-06-29T10:03:22.151Z,48.95
2017-06-29T10:04:22.185Z,49.24
2017-06-29T10:05:22.213Z,49.51
2017-06-29T10:06:22.242Z,49.51
2017-06-29T10:07:22.266Z,49.02
2017-06-29T10:08:22.294Z,49.51
2017-06-29T10:09:22.331Z,49.71
2017-06-29T10:10:22.359Z,49.51
2017-06-29T10:11:22.074Z,49.24
2017-06-29T10:12:22.447Z,49.71
2017-06-29T10:13:22.452Z,49.8
2017-06-29T10:14:22.475Z,49.54
2017-06-29T10:15:22.198Z,49.22
2017-06-29T10:16:22.534Z,49.32
2017-06-29T10:17:22.554Z,49.73
2017-06-29T10:18:22.592Z,49.73
2017-06-29T10:19:22.308Z,49.41
2017-06-29T10:20:22.336Z,49.54
2017-06-29T10:21:22.681Z,49.54
2017-06-29T10:22:22.712Z,49.73
2017-06-29T10:23:22.745Z,49.12
2017-06-29T10:24:22.776Z,49.54
2017-06-29T10:25:22.801Z,49.34
2017-06-29T10:26:22.834Z,49.54
2017-06-29T10:27:22.863Z,49.82
2017-06-29T10:28:22.891Z,49.34
2017-06-29T10:29:22.912Z,49.46
2017-06-29T10:30:22.952Z,49.44
2017-06-29T10:31:22.665Z,49.07
2017-06-29T10:32:23.012Z,49.15
2017-06-29T10:33:22.723Z,48.97
2017-06-29T10:34:22.749Z,49.37
2017-06-29T10:35:23.093Z,49.85
2017-06-29T10:36:23.129Z,49.37
2017-06-29T10:37:23.151Z,49.37
2017-06-29T10:38:23.483Z,48.97
2017-06-29T10:39:23.215Z,49.07
2017-06-29T10:40:23.242Z,49.27
2017-06-29T10:41:23.274Z,49.37
2017-06-29T10:42:23.312Z,49.46
2017-06-29T10:43:23.636Z,48.97
2017-06-29T10:44:23.052Z,49.37
2017-06-29T10:45:23.074Z,49.17
2017-06-29T10:46:23.111Z,49.17
2017-06-29T10:47:23.458Z,48.78
2017-06-29T10:48:23.732Z,48.97
2017-06-29T10:49:23.505Z,48.97
2017-06-29T10:50:23.541Z,48.88
2017-06-29T10:51:23.574Z,49.29
2017-06-29T10:52:23.603Z,49.19
2017-06-29T10:53:23.887Z,48.97
2017-06-29T10:54:23.352Z,48.78
2017-06-29T10:55:23.689Z,48.8
2017-06-29T10:56:23.722Z,48.88
2017-06-29T10:57:23.751Z,48.9
2017-06-29T10:58:24.037Z,49.07
2017-06-29T10:59:23.809Z,48.68
2017-06-29T11:00:23.838Z,49
2017-06-29T11:01:23.559Z,49.1
2017-06-29T11:02:23.896Z,49.19
2017-06-29T11:03:24.222Z,49.29
2017-06-29T11:04:23.962Z,49.1
2017-06-29T11:05:23.989Z,49
2017-06-29T11:06:24.018Z,48.88
2017-06-29T11:07:24.045Z,48.9
2017-06-29T11:08:24.335Z,48.9
2017-06-29T11:09:24.108Z,48.68
2017-06-29T11:10:24.137Z,48.88
2017-06-29T11:11:24.169Z,49
2017-06-29T11:12:24.195Z,49
2017-06-29T11:13:24.216Z,48.41
2017-06-29T11:14:24.252Z,48.71
2017-06-29T11:15:24.290Z,47.83
2017-06-29T11:16:24.315Z,47.34
2017-06-29T11:17:24.352Z,47.44
2017-06-29T11:18:24.636Z,47.34
2017-06-29T11:19:24.405Z,47.64
2017-06-29T11:20:24.439Z,47.93
2017-06-29T11:21:24.462Z,47.54
2017-06-29T11:22:24.186Z,47.83
2017-06-29T11:23:24.832Z,47.34
2017-06-29T11:24:24.552Z,47.15
2017-06-29T11:25:24.275Z,46.96
2017-06-29T11:26:24.307Z,46.77
2017-06-29T11:27:24.334Z,46.67
2017-06-29T11:28:24.368Z,45.98
2017-06-29T11:29:24.390Z,45.98
2017-06-29T11:30:24.734Z,46.47
2017-06-29T11:31:24.771Z,45.79
2017-06-29T11:32:24.791Z,45.6
2017-06-29T11:33:24.829Z,44.82
2017-06-29T11:34:24.853Z,45.5
2017-06-29T11:35:24.893Z,45.21
2017-06-29T11:36:24.918Z,45.21
2017-06-29T11:37:24.946Z,44.62
2017-06-29T11:38:24.980Z,45.11
2017-06-29T11:39:25.000Z,45.23
2017-06-29T11:40:24.730Z,44.82
2017-06-29T11:41:25.071Z,44.45
2017-06-29T11:42:25.099Z,44.55
2017-06-29T11:43:24.812Z,44.45
2017-06-29T11:44:25.157Z,44.16
2017-06-29T11:45:25.193Z,43.87
2017-06-29T11:46:25.222Z,43.38
2017-06-29T11:47:25.244Z,42.82
2017-06-29T11:48:25.269Z,43.6
2017-06-29T11:49:25.308Z,43.89
2017-06-29T11:50:25.342Z,43.4
2017-06-29T11:51:25.371Z,43.21
2017-06-29T11:52:25.403Z,42.63
2017-06-29T11:53:25.428Z,42.63
2017-06-29T11:54:25.465Z,42.53
2017-06-29T11:55:25.494Z,42.63
2017-06-29T11:56:25.214Z,42.43
2017-06-29T11:57:25.552Z,41.85
2017-06-29T11:58:25.277Z,42.04
2017-06-29T11:59:25.302Z,42.63
2017-06-29T12:00:25.655Z,42.82
2017-06-29T12:01:25.677Z,42.16
2017-06-29T12:02:25.712Z,41.86
2017-06-29T12:03:25.741Z,41.86
2017-06-29T12:04:25.778Z,41.48
2017-06-29T12:05:25.486Z,41.77
2017-06-29T12:06:25.826Z,41.96
2017-06-29T12:07:25.867Z,41.77
2017-06-29T12:08:25.884Z,41.67
2017-06-29T12:09:25.916Z,41.96
2017-06-29T12:10:25.954Z,41.48
2017-06-29T12:11:25.986Z,41.19
2017-06-29T12:12:25.706Z,41.01
2017-06-29T12:13:25.735Z,41.3
2017-06-29T12:14:26.333Z,41.28
2017-06-29T12:15:26.115Z,41.86
2017-06-29T12:16:26.143Z,41.09
2017-06-29T12:17:26.174Z,41.2
2017-06-29T12:18:26.203Z,40.89
2017-06-29T12:19:26.541Z,40.89
2017-06-29T12:20:26.271Z,41.09
2017-06-29T12:21:26.303Z,41.19
2017-06-29T12:22:26.332Z,41.28
2017-06-29T12:23:26.050Z,41.38
2017-06-29T12:24:26.637Z,41.09
2017-06-29T12:25:26.419Z,41.96
2017-06-29T12:26:26.442Z,41.67
2017-06-29T12:27:26.488Z,41.85
2017-06-29T12:28:26.510Z,41.77
2017-06-29T12:29:26.478Z,41.77
2017-06-29T12:30:26.574Z,42.04
2017-06-29T12:31:26.603Z,42.04
2017-06-29T12:32:26.321Z,42.14
2017-06-29T12:33:26.669Z,42.04
2017-06-29T12:34:26.994Z,42.82
2017-06-29T12:35:26.717Z,42.53
2017-06-29T12:36:26.763Z,42.63
2017-06-29T12:37:26.792Z,42.91
2017-06-29T12:38:26.505Z,42.24
2017-06-29T12:39:27.100Z,42.91
2017-06-29T12:40:26.878Z,42.43
2017-06-29T12:41:26.915Z,42.43
2017-06-29T12:42:26.931Z,41.65
2017-06-29T12:43:26.972Z,41.85
2017-06-29T12:44:26.989Z,41.75
2017-06-29T12:45:27.040Z,41.77
2017-06-29T12:46:26.747Z,41.77
2017-06-29T12:47:27.092Z,41.96
2017-06-29T12:48:27.133Z,41.86
2017-06-29T12:49:27.405Z,42.14
2017-06-29T12:50:27.187Z,41.75
2017-06-29T12:51:27.215Z,41.94
2017-06-29T12:52:27.246Z,42.14
2017-06-29T12:53:26.965Z,41.75
2017-06-29T12:54:27.244Z,41.94
2017-06-29T12:55:27.022Z,41.75
2017-06-29T12:56:27.382Z,42.14
2017-06-29T12:57:27.399Z,42.43
2017-06-29T12:58:27.429Z,42.53
2017-06-29T12:59:27.769Z,42.43